sensor_id;sensor_type;location;lat;lon;timestamp;temperature;humidity
55026;DHT22;40925;45.666;18.994;2023-11-19T00:00:37;77.50;2227.20
55026;DHT22;40925;45.666;18.994;2023-11-19T00:03:02;77.50;2227.20
55026;DHT22;40925;45.666;18.994;2023-11-19T00:05:28;77.40;2227.20
55026;DHT22;40925;45.666;18.994;2023-11-19T00:07:54;77.40;2227.20
55026;DHT22;40925;45.666;18.994;2023-11-19T00:10:20;77.40;2227.20
55026;DHT22;40925;45.666;18.994;2023-11-19T00:12:49;77.40;2227.20
55026;DHT22;40925;45.666;18.994;2023-11-19T00:15:16;77.30;2227.20
55026;DHT22;40925;45.666;18.994;2023-11-19T00:17:47;77.30;2227.20
55026;DHT22;40925;45.666;18.994;2023-11-19T00:22:39;77.40;2227.20
55026;DHT22;40925;45.666;18.994;2023-11-19T00:25:06;77.30;2227.20
55026;DHT22;40925;45.666;18.994;2023-11-19T00:27:32;77.20;2227.20
55026;DHT22;40925;45.666;18.994;2023-11-19T00:29:57;77.20;2227.20
55026;DHT22;40925;45.666;18.994;2023-11-19T00:32:26;77.10;2227.20
55026;DHT22;40925;45.666;18.994;2023-11-19T00:34:52;77.00;2227.20
55026;DHT22;40925;45.666;18.994;2023-11-19T00:37:18;76.90;2227.20
55026;DHT22;40925;45.666;18.994;2023-11-19T00:39:43;76.90;2227.20
55026;DHT22;40925;45.666;18.994;2023-11-19T00:42:10;76.90;2227.20
55026;DHT22;40925;45.666;18.994;2023-11-19T00:44:36;76.90;2227.20
55026;DHT22;40925;45.666;18.994;2023-11-19T00:47:02;76.90;2227.20
55026;DHT22;40925;45.666;18.994;2023-11-19T00:49:28;76.90;2227.20
55026;DHT22;40925;45.666;18.994;2023-11-19T00:51:54;76.80;2227.20
55026;DHT22;40925;45.666;18.994;2023-11-19T00:54:20;77.00;2227.20
55026;DHT22;40925;45.666;18.994;2023-11-19T00:56:45;76.90;2227.20
55026;DHT22;40925;45.666;18.994;2023-11-19T00:59:12;76.90;2227.20
55026;DHT22;40925;45.666;18.994;2023-11-19T01:01:37;76.80;2227.20
55026;DHT22;40925;45.666;18.994;2023-11-19T01:04:03;76.90;2227.20
55026;DHT22;40925;45.666;18.994;2023-11-19T01:23:36;52.00;2227.20
55026;DHT22;40925;45.666;18.994;2023-11-19T01:26:03;51.90;1920.00
55026;DHT22;40925;45.666;18.994;2023-11-19T01:28:33;51.70;2227.20
55026;DHT22;40925;45.666;18.994;2023-11-19T01:30:59;51.60;2227.20
55026;DHT22;40925;45.666;18.994;2023-11-19T01:33:25;51.50;2227.20
55026;DHT22;40925;45.666;18.994;2023-11-19T01:35:50;51.70;2227.20
55026;DHT22;40925;45.666;18.994;2023-11-19T01:38:19;51.50;2227.20
55026;DHT22;40925;45.666;18.994;2023-11-19T01:40:45;51.50;2227.20
55026;DHT22;40925;45.666;18.994;2023-11-19T01:43:10;51.50;2227.20
55026;DHT22;40925;45.666;18.994;2023-11-19T01:45:37;51.50;2227.20
55026;DHT22;40925;45.666;18.994;2023-11-19T01:48:04;51.50;2227.20
55026;DHT22;40925;45.666;18.994;2023-11-19T01:50:31;51.50;2227.20
55026;DHT22;40925;45.666;18.994;2023-11-19T01:52:58;51.60;2227.20
55026;DHT22;40925;45.666;18.994;2023-11-19T01:55:27;51.50;2227.20
55026;DHT22;40925;45.666;18.994;2023-11-19T01:57:58;51.40;2227.20
55026;DHT22;40925;45.666;18.994;2023-11-19T02:00:24;51.50;2227.20
55026;DHT22;40925;45.666;18.994;2023-11-19T02:02:51;51.50;2227.20
55026;DHT22;40925;45.666;18.994;2023-11-19T02:05:17;51.50;2227.20
55026;DHT22;40925;45.666;18.994;2023-11-19T02:07:43;51.50;1868.80
55026;DHT22;40925;45.666;18.994;2023-11-19T02:10:09;51.40;2227.20
55026;DHT22;40925;45.666;18.994;2023-11-19T02:12:43;51.40;2022.40
55026;DHT22;40925;45.666;18.994;2023-11-19T02:15:10;51.40;2227.20
55026;DHT22;40925;45.666;18.994;2023-11-19T02:17:37;51.40;2227.20
55026;DHT22;40925;45.666;18.994;2023-11-19T02:20:08;51.40;2227.20
55026;DHT22;40925;45.666;18.994;2023-11-19T02:22:36;51.30;2227.20
55026;DHT22;40925;45.666;18.994;2023-11-19T02:25:07;51.40;2227.20
55026;DHT22;40925;45.666;18.994;2023-11-19T02:28:03;51.30;2176.00
55026;DHT22;40925;45.666;18.994;2023-11-19T02:30:30;51.30;2124.80
55026;DHT22;40925;45.666;18.994;2023-11-19T04:55:19;26.30;2201.60
55026;DHT22;40925;45.666;18.994;2023-11-19T04:57:45;26.10;2201.60
55026;DHT22;40925;45.666;18.994;2023-11-19T05:00:11;26.00;2201.60
55026;DHT22;40925;45.666;18.994;2023-11-19T05:02:37;26.10;2201.60
55026;DHT22;40925;45.666;18.994;2023-11-19T05:05:03;26.00;1971.20
55026;DHT22;40925;45.666;18.994;2023-11-19T05:07:30;25.80;2201.60
55026;DHT22;40925;45.666;18.994;2023-11-19T05:09:56;25.60;2201.60
55026;DHT22;40925;45.666;18.994;2023-11-19T05:12:21;25.60;2201.60
55026;DHT22;40925;45.666;18.994;2023-11-19T05:14:48;25.60;2201.60
55026;DHT22;40925;45.666;18.994;2023-11-19T05:17:17;0.80;2201.60
55026;DHT22;40925;45.666;18.994;2023-11-19T05:19:47;0.70;2201.60
55026;DHT22;40925;45.666;18.994;2023-11-19T05:22:13;0.60;2201.60
55026;DHT22;40925;45.666;18.994;2023-11-19T05:24:39;0.50;2201.60
55026;DHT22;40925;45.666;18.994;2023-11-19T05:27:06;0.60;2201.60
55026;DHT22;40925;45.666;18.994;2023-11-19T05:29:33;0.50;2201.60
55026;DHT22;40925;45.666;18.994;2023-11-19T05:31:59;0.60;2201.60
55026;DHT22;40925;45.666;18.994;2023-11-19T05:34:24;0.70;2201.60
55026;DHT22;40925;45.666;18.994;2023-11-19T05:36:50;0.80;2201.60
55026;DHT22;40925;45.666;18.994;2023-11-19T05:39:16;0.80;2201.60
55026;DHT22;40925;45.666;18.994;2023-11-19T05:41:44;0.90;2201.60
55026;DHT22;40925;45.666;18.994;2023-11-19T05:44:09;25.60;2201.60
55026;DHT22;40925;45.666;18.994;2023-11-19T05:46:35;25.80;2201.60
55026;DHT22;40925;45.666;18.994;2023-11-19T05:49:05;25.90;2201.60
55026;DHT22;40925;45.666;18.994;2023-11-19T05:51:31;25.90;2201.60
55026;DHT22;40925;45.666;18.994;2023-11-19T05:54:00;26.00;2201.60
55026;DHT22;40925;45.666;18.994;2023-11-19T05:56:25;26.00;2201.60
55026;DHT22;40925;45.666;18.994;2023-11-19T05:58:58;26.10;2201.60
55026;DHT22;40925;45.666;18.994;2023-11-19T06:01:26;26.20;2201.60
55026;DHT22;40925;45.666;18.994;2023-11-19T06:03:52;26.40;2201.60
55026;DHT22;40925;45.666;18.994;2023-11-19T06:06:18;51.40;2227.20
55026;DHT22;40925;45.666;18.994;2023-11-19T06:08:44;76.90;2227.20
55026;DHT22;40925;45.666;18.994;2023-11-19T06:11:10;77.00;2227.20
55026;DHT22;40925;45.666;18.994;2023-11-19T06:13:44;76.90;2227.20
55026;DHT22;40925;45.666;18.994;2023-11-19T06:16:10;52.10;2227.20
55026;DHT22;40925;45.666;18.994;2023-11-19T06:18:36;51.80;2227.20
55026;DHT22;40925;45.666;18.994;2023-11-19T06:21:02;51.80;2227.20
55026;DHT22;40925;45.666;18.994;2023-11-19T06:23:28;52.00;2227.20
55026;DHT22;40925;45.666;18.994;2023-11-19T06:25:54;76.90;2227.20
55026;DHT22;40925;45.666;18.994;2023-11-19T06:33:14;154.20;2252.80
55026;DHT22;40925;45.666;18.994;2023-11-19T06:35:40;154.20;2252.80
55026;DHT22;40925;45.666;18.994;2023-11-19T06:40:35;180.00;2252.80
55026;DHT22;40925;45.666;18.994;2023-11-19T06:43:01;179.60;2252.80
55026;DHT22;40925;45.666;18.994;2023-11-19T06:45:29;153.60;2252.80
55026;DHT22;40925;45.666;18.994;2023-11-19T06:50:21;154.40;2252.80
55026;DHT22;40925;45.666;18.994;2023-11-19T06:52:47;154.30;2252.80
55026;DHT22;40925;45.666;18.994;2023-11-19T06:55:13;153.90;2252.80
55026;DHT22;40925;45.666;18.994;2023-11-19T06:57:38;128.90;2252.80
55026;DHT22;40925;45.666;18.994;2023-11-19T07:00:05;153.90;2252.80
55026;DHT22;40925;45.666;18.994;2023-11-19T07:02:31;154.10;2252.80
55026;DHT22;40925;45.666;18.994;2023-11-19T07:07:25;179.40;2252.80
55026;DHT22;40925;45.666;18.994;2023-11-19T07:09:52;179.60;2252.80
55026;DHT22;40925;45.666;18.994;2023-11-19T07:14:43;230.60;2252.80
55026;DHT22;40925;45.666;18.994;2023-11-19T07:24:32;333.10;1996.80
55026;DHT22;40925;45.666;18.994;2023-11-19T07:29:24;332.80;2022.40
55026;DHT22;40925;45.666;18.994;2023-11-19T07:31:49;333.10;2022.40
55026;DHT22;40925;45.666;18.994;2023-11-19T07:34:15;333.60;1920.00
55026;DHT22;40925;45.666;18.994;2023-11-19T07:48:55;179.60;2252.80
55026;DHT22;40925;45.666;18.994;2023-11-19T07:51:21;179.80;2252.80
55026;DHT22;40925;45.666;18.994;2023-11-19T07:53:47;205.60;2252.80
55026;DHT22;40925;45.666;18.994;2023-11-19T07:58:38;307.50;2176.00
55026;DHT22;40925;45.666;18.994;2023-11-19T08:01:05;307.60;2124.80
55026;DHT22;40925;45.666;18.994;2023-11-19T08:03:30;307.80;2099.20
55026;DHT22;40925;45.666;18.994;2023-11-19T08:05:56;307.50;2099.20
55026;DHT22;40925;45.666;18.994;2023-11-19T08:08:24;256.50;2201.60
55026;DHT22;40925;45.666;18.994;2023-11-19T08:13:20;205.40;2252.80
55026;DHT22;40925;45.666;18.994;2023-11-19T08:15:46;179.80;2252.80
55026;DHT22;40925;45.666;18.994;2023-11-19T08:18:12;179.40;2252.80
55026;DHT22;40925;45.666;18.994;2023-11-19T08:20:38;179.30;2252.80
55026;DHT22;40925;45.666;18.994;2023-11-19T08:25:33;154.40;2252.80
55026;DHT22;40925;45.666;18.994;2023-11-19T08:27:59;154.20;2252.80
55026;DHT22;40925;45.666;18.994;2023-11-19T08:30:26;153.70;2252.80
55026;DHT22;40925;45.666;18.994;2023-11-19T08:32:52;128.90;2252.80
55026;DHT22;40925;45.666;18.994;2023-11-19T08:35:18;153.60;2252.80
55026;DHT22;40925;45.666;18.994;2023-11-19T08:37:44;153.80;2252.80
55026;DHT22;40925;45.666;18.994;2023-11-19T08:40:11;153.90;2252.80
55026;DHT22;40925;45.666;18.994;2023-11-19T08:42:38;153.90;2252.80
55026;DHT22;40925;45.666;18.994;2023-11-19T08:45:05;154.20;2252.80
55026;DHT22;40925;45.666;18.994;2023-11-19T08:47:30;154.20;2252.80
55026;DHT22;40925;45.666;18.994;2023-11-19T08:49:56;153.80;2252.80
55026;DHT22;40925;45.666;18.994;2023-11-19T08:52:22;153.80;2252.80
55026;DHT22;40925;45.666;18.994;2023-11-19T08:54:47;153.60;2252.80
55026;DHT22;40925;45.666;18.994;2023-11-19T08:57:13;128.90;2252.80
55026;DHT22;40925;45.666;18.994;2023-11-19T08:59:39;153.70;2252.80
55026;DHT22;40925;45.666;18.994;2023-11-19T09:02:05;153.70;2252.80
55026;DHT22;40925;45.666;18.994;2023-11-19T09:04:32;153.70;2252.80
55026;DHT22;40925;45.666;18.994;2023-11-19T09:07:01;128.90;2252.80
55026;DHT22;40925;45.666;18.994;2023-11-19T09:09:26;153.70;2252.80
55026;DHT22;40925;45.666;18.994;2023-11-19T09:11:52;153.60;2252.80
55026;DHT22;40925;45.666;18.994;2023-11-19T09:14:18;128.80;2252.80
55026;DHT22;40925;45.666;18.994;2023-11-19T09:16:44;128.80;2252.80
55026;DHT22;40925;45.666;18.994;2023-11-19T09:19:09;128.90;2252.80
55026;DHT22;40925;45.666;18.994;2023-11-19T09:21:35;128.80;2252.80
55026;DHT22;40925;45.666;18.994;2023-11-19T09:24:05;128.90;2252.80
55026;DHT22;40925;45.666;18.994;2023-11-19T09:26:30;153.70;2252.80
55026;DHT22;40925;45.666;18.994;2023-11-19T09:28:59;128.90;2252.80
55026;DHT22;40925;45.666;18.994;2023-11-19T09:31:28;128.80;2252.80
55026;DHT22;40925;45.666;18.994;2023-11-19T09:33:54;128.70;2252.80
55026;DHT22;40925;45.666;18.994;2023-11-19T09:36:19;128.70;2252.80
55026;DHT22;40925;45.666;18.994;2023-11-19T09:38:45;128.70;2252.80
55026;DHT22;40925;45.666;18.994;2023-11-19T09:41:11;153.60;2252.80
55026;DHT22;40925;45.666;18.994;2023-11-19T09:43:42;153.80;2252.80
55026;DHT22;40925;45.666;18.994;2023-11-19T09:46:15;154.20;2252.80
55026;DHT22;40925;45.666;18.994;2023-11-19T09:48:42;179.20;2252.80
55026;DHT22;40925;45.666;18.994;2023-11-19T09:51:11;179.70;2252.80
55026;DHT22;40925;45.666;18.994;2023-11-19T09:56:07;230.60;2252.80
55026;DHT22;40925;45.666;18.994;2023-11-19T09:58:35;230.40;2252.80
55026;DHT22;40925;45.666;18.994;2023-11-19T10:01:01;205.60;2252.80
55026;DHT22;40925;45.666;18.994;2023-11-19T10:03:39;205.70;2252.80
55026;DHT22;40925;45.666;18.994;2023-11-19T10:06:07;230.40;2252.80
55026;DHT22;40925;45.666;18.994;2023-11-19T10:08:34;230.50;2252.80
55026;DHT22;40925;45.666;18.994;2023-11-19T10:11:02;230.60;2252.80
55026;DHT22;40925;45.666;18.994;2023-11-19T10:13:28;205.70;2252.80
55026;DHT22;40925;45.666;18.994;2023-11-19T10:15:55;230.50;2252.80
55026;DHT22;40925;45.666;18.994;2023-11-19T10:18:26;230.80;2252.80
55026;DHT22;40925;45.666;18.994;2023-11-19T10:23:19;256.60;2252.80
55026;DHT22;40925;45.666;18.994;2023-11-19T10:30:37;256.10;2252.80
55026;DHT22;40925;45.666;18.994;2023-11-19T10:33:11;256.00;2252.80
55026;DHT22;40925;45.666;18.994;2023-11-19T10:35:53;230.80;2252.80
55026;DHT22;40925;45.666;18.994;2023-11-19T10:38:19;230.70;2252.80
55026;DHT22;40925;45.666;18.994;2023-11-19T10:40:46;230.40;2252.80
55026;DHT22;40925;45.666;18.994;2023-11-19T10:43:13;205.70;2252.80
55026;DHT22;40925;45.666;18.994;2023-11-19T10:45:40;205.50;2252.80
55026;DHT22;40925;45.666;18.994;2023-11-19T11:31:16;205.40;2252.80
55026;DHT22;40925;45.666;18.994;2023-11-19T11:40:02;205.70;2252.80
55026;DHT22;40925;45.666;18.994;2023-11-19T11:42:36;205.60;2252.80
55026;DHT22;40925;45.666;18.994;2023-11-19T11:45:08;205.50;2252.80
55026;DHT22;40925;45.666;18.994;2023-11-19T11:55:53;205.30;2252.80
55026;DHT22;40925;45.666;18.994;2023-11-19T11:58:25;205.30;2252.80
55026;DHT22;40925;45.666;18.994;2023-11-19T12:00:51;205.30;2252.80
55026;DHT22;40925;45.666;18.994;2023-11-19T12:03:20;205.40;2252.80
55026;DHT22;40925;45.666;18.994;2023-11-19T12:05:50;205.40;2252.80
55026;DHT22;40925;45.666;18.994;2023-11-19T12:08:19;205.40;2252.80
55026;DHT22;40925;45.666;18.994;2023-11-19T12:10:51;205.20;2252.80
55026;DHT22;40925;45.666;18.994;2023-11-19T12:13:18;205.20;2252.80
55026;DHT22;40925;45.666;18.994;2023-11-19T12:18:24;205.20;2252.80
55026;DHT22;40925;45.666;18.994;2023-11-19T12:20:50;205.20;2252.80
55026;DHT22;40925;45.666;18.994;2023-11-19T12:23:15;205.30;2252.80
55026;DHT22;40925;45.666;18.994;2023-11-19T12:25:44;205.40;2252.80
55026;DHT22;40925;45.666;18.994;2023-11-19T12:28:16;205.50;2252.80
55026;DHT22;40925;45.666;18.994;2023-11-19T12:30:48;230.40;2252.80
55026;DHT22;40925;45.666;18.994;2023-11-19T12:33:15;230.70;2252.80
55026;DHT22;40925;45.666;18.994;2023-11-19T12:35:44;231.20;2252.80
55026;DHT22;40925;45.666;18.994;2023-11-19T12:38:21;231.30;2252.80
55026;DHT22;40925;45.666;18.994;2023-11-19T12:40:47;230.90;2252.80
55026;DHT22;40925;45.666;18.994;2023-11-19T12:43:22;230.80;2252.80
55026;DHT22;40925;45.666;18.994;2023-11-19T12:45:48;230.60;2252.80
55026;DHT22;40925;45.666;18.994;2023-11-19T12:48:20;230.40;2252.80
55026;DHT22;40925;45.666;18.994;2023-11-19T12:50:56;230.40;2252.80
55026;DHT22;40925;45.666;18.994;2023-11-19T12:53:23;205.70;2252.80
55026;DHT22;40925;45.666;18.994;2023-11-19T12:55:53;205.70;2252.80
55026;DHT22;40925;45.666;18.994;2023-11-19T12:58:34;230.40;2252.80
55026;DHT22;40925;45.666;18.994;2023-11-19T13:01:05;230.40;2252.80
55026;DHT22;40925;45.666;18.994;2023-11-19T13:03:41;230.40;2252.80
55026;DHT22;40925;45.666;18.994;2023-11-19T13:06:08;230.50;2252.80
55026;DHT22;40925;45.666;18.994;2023-11-19T13:08:47;230.50;2252.80
55026;DHT22;40925;45.666;18.994;2023-11-19T13:11:34;230.40;2252.80
55026;DHT22;40925;45.666;18.994;2023-11-19T13:14:04;230.40;2252.80
55026;DHT22;40925;45.666;18.994;2023-11-19T13:16:31;230.50;2252.80
55026;DHT22;40925;45.666;18.994;2023-11-19T13:18:57;230.50;2252.80
55026;DHT22;40925;45.666;18.994;2023-11-19T13:21:25;230.60;2252.80
55026;DHT22;40925;45.666;18.994;2023-11-19T13:23:51;231.00;2252.80
55026;DHT22;40925;45.666;18.994;2023-11-19T13:26:17;230.90;2252.80
55026;DHT22;40925;45.666;18.994;2023-11-19T13:28:42;230.80;2252.80
55026;DHT22;40925;45.666;18.994;2023-11-19T13:31:08;256.10;2252.80
55026;DHT22;40925;45.666;18.994;2023-11-19T13:33:35;231.30;2252.80
55026;DHT22;40925;45.666;18.994;2023-11-19T13:36:02;231.00;2252.80
55026;DHT22;40925;45.666;18.994;2023-11-19T13:38:37;230.90;2252.80
55026;DHT22;40925;45.666;18.994;2023-11-19T13:41:03;230.80;2252.80
55026;DHT22;40925;45.666;18.994;2023-11-19T13:43:32;230.60;2252.80
55026;DHT22;40925;45.666;18.994;2023-11-19T13:48:24;230.70;2252.80
55026;DHT22;40925;45.666;18.994;2023-11-19T13:50:52;205.70;2252.80
55026;DHT22;40925;45.666;18.994;2023-11-19T13:53:20;205.70;2252.80
55026;DHT22;40925;45.666;18.994;2023-11-19T13:55:46;205.70;2252.80
55026;DHT22;40925;45.666;18.994;2023-11-19T13:58:13;205.70;2252.80
55026;DHT22;40925;45.666;18.994;2023-11-19T14:00:38;230.40;2252.80
55026;DHT22;40925;45.666;18.994;2023-11-19T14:03:04;230.80;2252.80
55026;DHT22;40925;45.666;18.994;2023-11-19T14:05:30;231.10;2252.80
55026;DHT22;40925;45.666;18.994;2023-11-19T14:07:59;230.90;2252.80
55026;DHT22;40925;45.666;18.994;2023-11-19T14:10:26;230.70;2252.80
55026;DHT22;40925;45.666;18.994;2023-11-19T14:12:52;230.50;2252.80
55026;DHT22;40925;45.666;18.994;2023-11-19T14:15:18;230.50;2252.80
55026;DHT22;40925;45.666;18.994;2023-11-19T14:17:44;230.50;2252.80
55026;DHT22;40925;45.666;18.994;2023-11-19T14:20:10;230.80;2252.80
55026;DHT22;40925;45.666;18.994;2023-11-19T14:22:43;230.90;2252.80
55026;DHT22;40925;45.666;18.994;2023-11-19T14:25:09;231.10;2252.80
55026;DHT22;40925;45.666;18.994;2023-11-19T14:27:39;231.20;2252.80
55026;DHT22;40925;45.666;18.994;2023-11-19T14:30:09;231.10;2252.80
55026;DHT22;40925;45.666;18.994;2023-11-19T14:32:40;231.30;2252.80
55026;DHT22;40925;45.666;18.994;2023-11-19T14:35:06;231.20;2252.80
55026;DHT22;40925;45.666;18.994;2023-11-19T14:37:33;231.00;2252.80
55026;DHT22;40925;45.666;18.994;2023-11-19T14:39:59;230.90;2252.80
55026;DHT22;40925;45.666;18.994;2023-11-19T14:42:25;230.70;2252.80
55026;DHT22;40925;45.666;18.994;2023-11-19T14:47:21;230.70;2252.80
55026;DHT22;40925;45.666;18.994;2023-11-19T14:49:47;205.70;2252.80
55026;DHT22;40925;45.666;18.994;2023-11-19T14:52:12;205.70;2252.80
55026;DHT22;40925;45.666;18.994;2023-11-19T14:54:39;205.60;2252.80
55026;DHT22;40925;45.666;18.994;2023-11-19T14:57:05;205.40;2252.80
55026;DHT22;40925;45.666;18.994;2023-11-19T14:59:37;205.30;2252.80
55026;DHT22;40925;45.666;18.994;2023-11-19T15:02:03;205.20;2252.80
55026;DHT22;40925;45.666;18.994;2023-11-19T15:04:29;205.10;2252.80
55026;DHT22;40925;45.666;18.994;2023-11-19T15:06:59;205.10;2252.80
55026;DHT22;40925;45.666;18.994;2023-11-19T15:09:25;205.00;2252.80
55026;DHT22;40925;45.666;18.994;2023-11-19T15:11:53;205.00;2252.80
55026;DHT22;40925;45.666;18.994;2023-11-19T15:14:19;180.00;2252.80
55026;DHT22;40925;45.666;18.994;2023-11-19T15:16:48;180.00;2252.80
55026;DHT22;40925;45.666;18.994;2023-11-19T15:19:16;179.90;2252.80
55026;DHT22;40925;45.666;18.994;2023-11-19T15:21:42;179.90;2252.80
55026;DHT22;40925;45.666;18.994;2023-11-19T15:24:09;179.90;2252.80
55026;DHT22;40925;45.666;18.994;2023-11-19T15:26:35;179.90;2252.80
55026;DHT22;40925;45.666;18.994;2023-11-19T15:29:01;179.90;2252.80
55026;DHT22;40925;45.666;18.994;2023-11-19T15:31:28;179.80;2252.80
55026;DHT22;40925;45.666;18.994;2023-11-19T15:33:54;179.80;2252.80
55026;DHT22;40925;45.666;18.994;2023-11-19T15:36:20;179.60;2252.80
55026;DHT22;40925;45.666;18.994;2023-11-19T15:38:46;179.60;2252.80
55026;DHT22;40925;45.666;18.994;2023-11-19T15:41:12;179.50;2252.80
55026;DHT22;40925;45.666;18.994;2023-11-19T15:43:43;179.40;2252.80
55026;DHT22;40925;45.666;18.994;2023-11-19T15:46:11;179.40;2252.80
55026;DHT22;40925;45.666;18.994;2023-11-19T15:48:37;179.30;2252.80
55026;DHT22;40925;45.666;18.994;2023-11-19T15:51:03;179.30;2252.80
55026;DHT22;40925;45.666;18.994;2023-11-19T15:53:29;179.30;2252.80
55026;DHT22;40925;45.666;18.994;2023-11-19T15:55:57;179.30;2252.80
55026;DHT22;40925;45.666;18.994;2023-11-19T15:58:22;179.50;2252.80
55026;DHT22;40925;45.666;18.994;2023-11-19T16:00:52;179.50;2252.80
55026;DHT22;40925;45.666;18.994;2023-11-19T16:03:17;179.50;2252.80
55026;DHT22;40925;45.666;18.994;2023-11-19T16:05:43;179.60;2252.80
55026;DHT22;40925;45.666;18.994;2023-11-19T16:08:09;179.60;2252.80
55026;DHT22;40925;45.666;18.994;2023-11-19T16:10:37;179.60;2252.80
55026;DHT22;40925;45.666;18.994;2023-11-19T16:13:09;179.60;2252.80
55026;DHT22;40925;45.666;18.994;2023-11-19T16:15:36;179.60;2252.80
55026;DHT22;40925;45.666;18.994;2023-11-19T16:18:01;179.50;2252.80
55026;DHT22;40925;45.666;18.994;2023-11-19T16:20:27;179.50;2252.80
55026;DHT22;40925;45.666;18.994;2023-11-19T16:22:54;179.30;2252.80
55026;DHT22;40925;45.666;18.994;2023-11-19T16:25:19;179.20;2252.80
55026;DHT22;40925;45.666;18.994;2023-11-19T16:27:45;179.30;2252.80
55026;DHT22;40925;45.666;18.994;2023-11-19T16:30:11;179.40;2252.80
55026;DHT22;40925;45.666;18.994;2023-11-19T16:32:50;179.50;2252.80
55026;DHT22;40925;45.666;18.994;2023-11-19T16:35:17;179.60;2252.80
55026;DHT22;40925;45.666;18.994;2023-11-19T16:37:44;179.60;2252.80
55026;DHT22;40925;45.666;18.994;2023-11-19T16:40:13;179.50;2252.80
55026;DHT22;40925;45.666;18.994;2023-11-19T16:42:39;179.50;2252.80
55026;DHT22;40925;45.666;18.994;2023-11-19T16:45:06;179.40;2252.80
55026;DHT22;40925;45.666;18.994;2023-11-19T16:47:32;179.30;2252.80
55026;DHT22;40925;45.666;18.994;2023-11-19T16:49:58;179.40;2252.80
55026;DHT22;40925;45.666;18.994;2023-11-19T16:52:24;179.30;2252.80
55026;DHT22;40925;45.666;18.994;2023-11-19T16:54:54;179.30;2252.80
55026;DHT22;40925;45.666;18.994;2023-11-19T17:00:42;179.20;2252.80
55026;DHT22;40925;45.666;18.994;2023-11-19T17:03:09;179.40;2252.80
55026;DHT22;40925;45.666;18.994;2023-11-19T17:05:35;179.30;2252.80
55026;DHT22;40925;45.666;18.994;2023-11-19T17:08:03;154.50;2252.80
55026;DHT22;40925;45.666;18.994;2023-11-19T17:10:30;154.40;2252.80
55026;DHT22;40925;45.666;18.994;2023-11-19T17:12:59;154.40;2252.80
55026;DHT22;40925;45.666;18.994;2023-11-19T17:15:25;154.40;2252.80
55026;DHT22;40925;45.666;18.994;2023-11-19T17:17:51;154.40;2252.80
55026;DHT22;40925;45.666;18.994;2023-11-19T17:20:16;154.20;2252.80
55026;DHT22;40925;45.666;18.994;2023-11-19T17:22:46;154.40;2252.80
55026;DHT22;40925;45.666;18.994;2023-11-19T17:25:11;154.40;2252.80
55026;DHT22;40925;45.666;18.994;2023-11-19T17:27:39;154.30;2252.80
55026;DHT22;40925;45.666;18.994;2023-11-19T17:30:06;154.30;2252.80
55026;DHT22;40925;45.666;18.994;2023-11-19T17:32:32;154.30;2252.80
55026;DHT22;40925;45.666;18.994;2023-11-19T17:34:58;153.80;2252.80
55026;DHT22;40925;45.666;18.994;2023-11-19T17:37:24;154.00;2252.80
55026;DHT22;40925;45.666;18.994;2023-11-19T17:39:50;154.00;2252.80
55026;DHT22;40925;45.666;18.994;2023-11-19T17:42:17;153.90;2252.80
55026;DHT22;40925;45.666;18.994;2023-11-19T17:44:44;153.80;2252.80
55026;DHT22;40925;45.666;18.994;2023-11-19T17:49:39;128.80;2252.80
55026;DHT22;40925;45.666;18.994;2023-11-19T17:52:06;128.80;2252.80
55026;DHT22;40925;45.666;18.994;2023-11-19T17:54:32;128.70;2252.80
55026;DHT22;40925;45.666;18.994;2023-11-19T18:29:53;153.60;2252.80
55026;DHT22;40925;45.666;18.994;2023-11-19T18:32:19;153.60;2252.80
55026;DHT22;40925;45.666;18.994;2023-11-19T20:11:40;128.70;2252.80
55026;DHT22;40925;45.666;18.994;2023-11-19T20:17:31;128.20;2252.80
55026;DHT22;40925;45.666;18.994;2023-11-19T20:19:57;128.20;2252.80
55026;DHT22;40925;45.666;18.994;2023-11-19T20:22:24;128.20;2252.80
55026;DHT22;40925;45.666;18.994;2023-11-19T20:24:50;128.20;2252.80
55026;DHT22;40925;45.666;18.994;2023-11-19T20:27:17;128.20;2252.80
55026;DHT22;40925;45.666;18.994;2023-11-19T20:29:46;128.20;2252.80
55026;DHT22;40925;45.666;18.994;2023-11-19T20:32:12;128.20;2252.80
55026;DHT22;40925;45.666;18.994;2023-11-19T20:34:39;128.20;2252.80
55026;DHT22;40925;45.666;18.994;2023-11-19T20:37:06;128.20;2252.80
55026;DHT22;40925;45.666;18.994;2023-11-19T20:39:33;128.20;2252.80
55026;DHT22;40925;45.666;18.994;2023-11-19T20:41:59;128.30;2252.80
55026;DHT22;40925;45.666;18.994;2023-11-19T20:47:47;128.20;2252.80
55026;DHT22;40925;45.666;18.994;2023-11-19T20:50:16;128.20;2252.80
55026;DHT22;40925;45.666;18.994;2023-11-19T20:52:42;128.20;2252.80
55026;DHT22;40925;45.666;18.994;2023-11-19T20:55:08;128.20;2252.80
55026;DHT22;40925;45.666;18.994;2023-11-19T20:57:37;128.30;2252.80
55026;DHT22;40925;45.666;18.994;2023-11-19T21:00:03;128.20;2252.80
55026;DHT22;40925;45.666;18.994;2023-11-19T21:02:30;128.30;2252.80
55026;DHT22;40925;45.666;18.994;2023-11-19T21:04:57;128.30;2252.80
55026;DHT22;40925;45.666;18.994;2023-11-19T21:07:23;128.30;2252.80
55026;DHT22;40925;45.666;18.994;2023-11-19T21:09:50;128.40;2252.80
55026;DHT22;40925;45.666;18.994;2023-11-19T21:12:15;128.40;2252.80
55026;DHT22;40925;45.666;18.994;2023-11-19T21:18:04;128.60;2252.80
55026;DHT22;40925;45.666;18.994;2023-11-19T21:20:30;128.60;2252.80
55026;DHT22;40925;45.666;18.994;2023-11-19T21:22:57;128.60;2252.80
55026;DHT22;40925;45.666;18.994;2023-11-19T21:25:23;128.60;2252.80
55026;DHT22;40925;45.666;18.994;2023-11-19T21:27:49;128.60;2252.80
55026;DHT22;40925;45.666;18.994;2023-11-19T21:30:15;128.60;2252.80
55026;DHT22;40925;45.666;18.994;2023-11-19T21:32:43;128.60;2252.80
55026;DHT22;40925;45.666;18.994;2023-11-19T21:35:09;128.70;2252.80
55026;DHT22;40925;45.666;18.994;2023-11-19T21:37:35;128.70;2252.80
55026;DHT22;40925;45.666;18.994;2023-11-19T21:40:03;128.70;2252.80
55026;DHT22;40925;45.666;18.994;2023-11-19T21:42:32;128.70;2252.80
55026;DHT22;40925;45.666;18.994;2023-11-19T21:48:20;128.70;2252.80